アティラウ の空港の天気 - METARとTAF

Atyrau Airport ( UATG / GUW ) - カザフスタン Atyrau
飛行場実況気象(Metar)
観測時間02/18 04:00 ORAT (02/17 23:00 UTC)
風向・風速南南西 9m/s
視程3200m
天気現象もや
全天の8割程度の雲 雲底高度 120m
全天を覆う雲 雲底高度 550m
気温0℃
湿度100%
気圧997hPa
METARUATG 172300Z 21009MPS 3200 BR BKN004 OVC018 M00/M00 Q0997 R14/19//65 TEMPO 2000 BR BKN003 RMK QBB130 QFE750/1000
過去の天気等 Google飛行場航空写真 Wunderground天気予報

過去48時間のMETAR

飛行場予報(TAF)
発表時間: 2/17 22:04 ORAT (2/17 17:04 UTC)
予報対象時間: 17日23時 ORAT ~ 18日23時 ORAT
風向・風速南西 3m/s
視程3100m
天気現象もや
全天の8割程度の雲 雲底高度 340m
17日23時 ORAT ~ 18日9時 ORAT に一時的に
視程300m
天気現象弱い雪 氷霧
全天を覆う雲 鉛直視程 30m
18日10時 ORAT ~ 18日11時 ORAT に徐々に
風向・風速西 11m/s 瞬間風速 16m/s
全天の8割程度の雲 雲底高度 150m
全天を覆う雲 雲底高度 340m
TAF UATG 171704Z 1718/1818 22003MPS 3100 BR BKN011 TX02/1811Z TNM02/1804Z
TEMPO 1718/1804 0300 -SN FZFG VV001
BECMG 1805/1806 27011G16MPS BKN005 OVC011